createdAt,value
2019-04-09T00:00:59.610Z,5.45
2019-04-09T00:01:55.422Z,5.05
2019-04-09T00:02:50.869Z,5.17
2019-04-09T00:03:40.052Z,5.25
2019-04-09T00:04:19.463Z,4.90
2019-04-09T00:04:58.435Z,5.22
2019-04-09T00:05:37.967Z,5.20
2019-04-09T00:06:17.053Z,4.50
2019-04-09T00:06:54.339Z,5.20
2019-04-09T00:07:30.872Z,5.08
2019-04-09T00:08:11.076Z,4.92
2019-04-09T00:08:50.624Z,5.15
2019-04-09T00:09:29.939Z,5.03
2019-04-09T00:10:10.145Z,5.37
2019-04-09T00:10:49.667Z,5.12
2019-04-09T00:11:29.006Z,5.10
2019-04-09T00:12:08.279Z,5.37
2019-04-09T00:12:46.854Z,4.97
2019-04-09T00:13:25.576Z,5.25
2019-04-09T00:14:04.298Z,4.65
2019-04-09T00:14:42.943Z,5.03
2019-04-09T00:15:22.078Z,5.00
2019-04-09T00:16:00.786Z,5.20
2019-04-09T00:16:40.377Z,5.17
2019-04-09T00:17:19.750Z,5.47
2019-04-09T00:17:59.478Z,4.80
2019-04-09T00:18:38.408Z,5.50
2019-04-09T00:19:17.054Z,4.45
2019-04-09T00:19:55.716Z,4.25
2019-04-09T00:20:35.043Z,4.67
2019-04-09T00:21:14.756Z,5.45
2019-04-09T00:21:54.212Z,4.75
2019-04-09T00:22:33.314Z,5.15
2019-04-09T00:23:12.409Z,5.00
2019-04-09T00:23:51.798Z,4.97
2019-04-09T00:24:30.794Z,5.17
2019-04-09T00:25:10.419Z,5.95
2019-04-09T00:25:49.799Z,5.10
2019-04-09T00:26:29.199Z,5.55
2019-04-09T00:27:07.773Z,4.70
2019-04-09T00:27:47.274Z,5.22
2019-04-09T00:28:27.058Z,5.40
2019-04-09T00:29:05.880Z,5.12
2019-04-09T00:29:45.142Z,4.85
2019-04-09T00:30:23.668Z,5.03
2019-04-09T00:31:03.202Z,5.10
2019-04-09T00:31:43.170Z,4.75
2019-04-09T00:32:21.891Z,5.05
2019-04-09T00:33:01.739Z,4.53
2019-04-09T00:33:40.861Z,4.62
2019-04-09T00:34:19.774Z,4.80
2019-04-09T00:34:58.389Z,4.83
2019-04-09T00:35:37.327Z,5.30
2019-04-09T00:36:16.424Z,5.00
2019-04-09T00:36:56.221Z,5.45
2019-04-09T00:37:35.753Z,5.50
2019-04-09T00:38:15.058Z,5.17
2019-04-09T00:38:54.177Z,5.25
2019-04-09T00:39:33.574Z,5.37
2019-04-09T00:40:13.465Z,5.22
2019-04-09T00:40:52.817Z,5.17
2019-04-09T00:41:32.303Z,4.70
2019-04-09T00:42:11.684Z,5.30
2019-04-09T00:42:51.866Z,4.72
2019-04-09T00:43:31.122Z,5.22
2019-04-09T00:44:10.214Z,4.97
2019-04-09T00:44:48.898Z,5.00
2019-04-09T00:45:28.361Z,4.40
2019-04-09T00:46:07.208Z,5.40
2019-04-09T00:46:47.586Z,5.03
2019-04-09T00:47:27.102Z,5.47
2019-04-09T00:48:06.067Z,5.45
2019-04-09T00:48:46.544Z,4.97
2019-04-09T00:49:25.987Z,5.33
2019-04-09T00:50:06.311Z,5.05
2019-04-09T00:50:45.855Z,5.23
2019-04-09T00:51:25.169Z,5.33
2019-04-09T00:52:04.145Z,5.10
2019-04-09T00:52:43.399Z,4.90
2019-04-09T00:53:22.040Z,5.30
2019-04-09T00:54:01.183Z,5.08
2019-04-09T00:54:39.812Z,5.10
2019-04-09T00:55:19.020Z,5.08
2019-04-09T00:55:58.090Z,5.08
2019-04-09T00:56:37.979Z,5.27
2019-04-09T00:57:16.697Z,5.22
2019-04-09T00:57:55.874Z,5.35
2019-04-09T00:58:35.424Z,5.12
2019-04-09T00:59:15.399Z,5.90
2019-04-09T00:59:55.141Z,5.60
2019-04-09T01:00:49.567Z,5.20
2019-04-09T01:01:28.288Z,5.12
2019-04-09T01:02:07.234Z,5.00
2019-04-09T01:02:47.323Z,4.90
2019-04-09T01:03:26.575Z,5.30
2019-04-09T01:04:05.751Z,5.00
2019-04-09T01:04:45.252Z,5.13
2019-04-09T01:05:23.799Z,4.87
2019-04-09T01:06:03.102Z,5.53
2019-04-09T01:06:42.017Z,5.17
2019-04-09T01:07:20.834Z,5.25
2019-04-09T01:07:59.659Z,4.72
2019-04-09T01:08:40.021Z,5.45
2019-04-09T01:09:19.290Z,5.08
2019-04-09T01:09:59.497Z,5.45
2019-04-09T01:10:38.822Z,5.23
2019-04-09T01:11:17.396Z,5.75
2019-04-09T01:11:56.238Z,5.72
2019-04-09T01:12:35.391Z,5.78
2019-04-09T01:13:14.545Z,4.85
2019-04-09T01:13:53.253Z,5.78
2019-04-09T01:14:32.347Z,5.00
2019-04-09T01:15:12.760Z,5.60
2019-04-09T01:15:51.436Z,4.97
2019-04-09T01:16:30.138Z,5.33
2019-04-09T01:17:09.136Z,5.58
2019-04-09T01:17:48.388Z,5.30
2019-04-09T01:18:27.524Z,5.37
2019-04-09T01:19:12.095Z,4.45
2019-04-09T01:19:47.453Z,5.10
2019-04-09T01:20:26.735Z,5.45
2019-04-09T01:21:06.918Z,5.10
2019-04-09T01:21:47.689Z,4.60
2019-04-09T01:22:27.059Z,5.22
2019-04-09T01:23:06.662Z,5.53
2019-04-09T01:23:45.605Z,4.72
2019-04-09T01:24:32.921Z,4.70
2019-04-09T01:25:20.370Z,5.03
2019-04-09T01:26:21.021Z,4.97
2019-04-09T01:27:24.774Z,5.53
2019-04-09T01:28:04.647Z,5.30
2019-04-09T01:29:11.043Z,5.40
2019-04-09T01:29:58.938Z,5.53
2019-04-09T01:31:03.181Z,4.70
2019-04-09T01:32:13.078Z,5.47
2019-04-09T01:33:08.776Z,5.65
2019-04-09T01:34:03.366Z,5.17
2019-04-09T01:35:05.489Z,5.07
2019-04-09T01:36:03.357Z,4.90
2019-04-09T01:36:53.264Z,5.20
2019-04-09T01:38:06.524Z,5.47
2019-04-09T01:39:10.176Z,5.55
2019-04-09T01:40:07.331Z,5.20
2019-04-09T01:40:57.159Z,5.20
2019-04-09T01:41:44.935Z,6.00
2019-04-09T01:42:35.395Z,5.70
2019-04-09T01:43:33.082Z,5.65
2019-04-09T01:44:24.371Z,5.95
2019-04-09T01:45:39.798Z,6.70
2019-04-09T01:46:35.708Z,6.15
2019-04-09T01:47:33.513Z,6.15
2019-04-09T01:48:34.223Z,5.75
2019-04-09T01:49:50.427Z,6.42
2019-04-09T01:50:44.617Z,6.12
2019-04-09T01:51:39.516Z,6.35
2019-04-09T01:52:28.935Z,6.35
2019-04-09T01:53:25.802Z,6.95
2019-04-09T01:54:32.992Z,7.20
2019-04-09T01:55:30.654Z,7.95
2019-04-09T01:56:24.855Z,7.05
2019-04-09T01:57:28.029Z,8.30
2019-04-09T01:58:18.964Z,7.30
2019-04-09T01:59:20.253Z,7.75
2019-04-09T02:00:09.872Z,6.87
2019-04-09T02:01:00.989Z,7.80
2019-04-09T02:01:59.227Z,7.65
2019-04-09T02:02:56.401Z,7.70
2019-04-09T02:03:52.721Z,7.70
2019-04-09T02:04:48.736Z,7.58
2019-04-09T02:06:02.631Z,8.73
2019-04-09T02:07:05.884Z,8.30
2019-04-09T02:07:55.300Z,7.58
2019-04-09T02:08:53.080Z,7.75
2019-04-09T02:09:54.010Z,7.25
2019-04-09T02:10:46.216Z,7.53
2019-04-09T02:11:42.514Z,7.83
2019-04-09T02:12:39.225Z,8.20
2019-04-09T02:13:36.243Z,7.72
2019-04-09T02:14:33.895Z,7.15
2019-04-09T02:15:39.186Z,8.15
2019-04-09T02:16:32.839Z,7.83
2019-04-09T02:17:32.978Z,8.50
2019-04-09T02:18:33.076Z,9.20
2019-04-09T02:19:44.305Z,7.62
2019-04-09T02:20:40.163Z,9.03
2019-04-09T02:21:37.112Z,8.98
2019-04-09T02:22:37.255Z,9.65
2019-04-09T02:23:34.154Z,8.35
2019-04-09T02:24:40.489Z,8.55
2019-04-09T02:25:41.395Z,9.05
2019-04-09T02:26:37.043Z,8.43
2019-04-09T02:27:45.093Z,8.05
2019-04-09T02:28:32.088Z,8.70
2019-04-09T02:29:27.585Z,9.73
2019-04-09T02:30:16.954Z,9.75
2019-04-09T02:31:12.452Z,9.78
2019-04-09T02:32:26.122Z,8.93
2019-04-09T02:33:22.094Z,8.20
2019-04-09T02:34:20.974Z,8.43
2019-04-09T02:35:12.899Z,8.58
2019-04-09T02:36:18.642Z,8.43
2019-04-09T02:37:15.416Z,9.40
2019-04-09T02:38:32.009Z,8.63
2019-04-09T02:39:24.535Z,8.85
2019-04-09T02:40:25.419Z,8.80
2019-04-09T02:41:31.733Z,9.53
2019-04-09T02:42:27.283Z,9.00
2019-04-09T02:43:37.051Z,9.00
2019-04-09T02:44:31.505Z,9.13
2019-04-09T02:45:28.797Z,8.50
2019-04-09T02:46:24.527Z,8.55
2019-04-09T02:47:15.694Z,8.98
2019-04-09T02:48:15.637Z,9.25
2019-04-09T02:49:04.154Z,9.10
2019-04-09T02:50:08.831Z,9.00
2019-04-09T02:51:17.984Z,9.28
2019-04-09T02:52:29.960Z,10.40
2019-04-09T02:53:33.275Z,9.10
2019-04-09T02:54:35.744Z,9.43
2019-04-09T02:55:45.744Z,9.10
2019-04-09T02:56:39.408Z,9.38
2019-04-09T02:57:26.797Z,9.95
2019-04-09T02:58:31.046Z,9.30
2019-04-09T02:59:28.272Z,9.05
2019-04-09T03:00:30.706Z,8.83
2019-04-09T03:01:21.898Z,8.60
2019-04-09T03:02:19.459Z,8.40
2019-04-09T03:03:17.110Z,8.85
2019-04-09T03:04:06.783Z,9.25
2019-04-09T03:05:04.178Z,8.60
2019-04-09T03:06:01.681Z,8.63
2019-04-09T03:06:48.314Z,8.87
2019-04-09T03:07:58.618Z,8.70
2019-04-09T03:08:55.869Z,8.37
2019-04-09T03:09:51.627Z,8.48
2019-04-09T03:10:46.899Z,9.55
2019-04-09T03:11:50.826Z,8.48
2019-04-09T03:13:00.294Z,9.08
2019-04-09T03:14:03.717Z,9.03
2019-04-09T03:14:59.834Z,8.57
2019-04-09T03:16:09.968Z,8.90
2019-04-09T03:17:25.852Z,8.03
2019-04-09T03:18:26.178Z,8.25
2019-04-09T03:19:32.283Z,8.28
2019-04-09T03:20:26.657Z,8.83
2019-04-09T03:21:15.302Z,8.15
2019-04-09T03:22:13.147Z,7.10
2019-04-09T03:23:25.578Z,8.33
2019-04-09T03:24:22.683Z,7.53
2019-04-09T03:25:19.839Z,7.65
2019-04-09T03:26:14.492Z,8.55
2019-04-09T03:27:07.708Z,7.58
2019-04-09T03:28:11.186Z,7.25
2019-04-09T03:29:23.196Z,7.62
2019-04-09T03:30:15.202Z,7.00
2019-04-09T03:31:17.726Z,6.92
2019-04-09T03:32:23.814Z,7.58
2019-04-09T03:33:18.957Z,7.58
2019-04-09T03:34:11.538Z,7.47
2019-04-09T03:35:07.208Z,7.58
2019-04-09T03:36:04.965Z,7.30
2019-04-09T03:37:05.453Z,7.80
2019-04-09T03:38:06.038Z,7.42
2019-04-09T03:38:55.126Z,6.55
2019-04-09T03:39:54.165Z,7.40
2019-04-09T03:40:44.225Z,7.22
2019-04-09T03:41:41.204Z,7.10
2019-04-09T03:42:36.958Z,7.08
2019-04-09T03:43:33.048Z,6.70
2019-04-09T03:44:30.393Z,7.50
2019-04-09T03:45:31.415Z,6.53
2019-04-09T03:46:29.888Z,6.92
2019-04-09T03:47:27.957Z,7.15
2019-04-09T03:48:24.547Z,6.42
2019-04-09T03:49:22.548Z,6.53
2019-04-09T03:50:31.979Z,7.33
2019-04-09T03:51:31.638Z,6.83
2019-04-09T03:52:32.062Z,5.87
2019-04-09T03:53:20.718Z,6.72
2019-04-09T03:54:08.593Z,6.60
2019-04-09T03:54:55.471Z,6.42
2019-04-09T03:55:41.143Z,6.60
2019-04-09T03:56:56.917Z,6.40
2019-04-09T03:57:48.525Z,6.47
2019-04-09T03:58:56.059Z,5.90
2019-04-09T03:59:45.683Z,6.78
2019-04-09T04:00:51.734Z,6.60
2019-04-09T04:01:48.800Z,6.85
2019-04-09T04:03:01.361Z,6.58
2019-04-09T04:04:17.193Z,6.20
2019-04-09T04:05:24.416Z,5.90
2019-04-09T04:06:21.628Z,5.95
2019-04-09T04:07:21.940Z,6.70
2019-04-09T04:08:20.744Z,6.17
2019-04-09T04:09:05.455Z,5.75
2019-04-09T04:10:04.199Z,6.62
2019-04-09T04:11:05.095Z,6.13
2019-04-09T04:11:58.281Z,6.67
2019-04-09T04:12:51.535Z,6.53
2019-04-09T04:13:48.353Z,6.35
2019-04-09T04:14:55.110Z,6.17
2019-04-09T04:15:47.250Z,5.60
2019-04-09T04:16:55.071Z,5.47
2019-04-09T04:17:45.111Z,6.10
2019-04-09T04:18:52.877Z,5.80
2019-04-09T04:19:50.358Z,5.92
2019-04-09T04:20:53.820Z,6.00
2019-04-09T04:21:52.689Z,5.90
2019-04-09T04:22:41.839Z,6.08
2019-04-09T04:23:37.757Z,6.37
2019-04-09T04:24:34.410Z,6.22
2019-04-09T04:25:24.381Z,5.85
2019-04-09T04:26:30.594Z,5.92
2019-04-09T04:27:25.409Z,6.08
2019-04-09T04:28:38.381Z,5.60
2019-04-09T04:29:29.169Z,5.70
2019-04-09T04:30:24.893Z,5.90
2019-04-09T04:31:28.047Z,6.03
2019-04-09T04:32:33.524Z,6.62
2019-04-09T04:33:29.281Z,6.20
2019-04-09T04:34:24.532Z,5.80
2019-04-09T04:35:28.564Z,5.87
2019-04-09T04:36:25.854Z,5.65
2019-04-09T04:37:26.451Z,5.50
2019-04-09T04:38:24.873Z,5.83
2019-04-09T04:39:37.168Z,5.90
2019-04-09T04:40:35.564Z,5.78
2019-04-09T04:41:40.728Z,6.03
2019-04-09T04:42:43.862Z,6.00
2019-04-09T04:43:35.336Z,6.30
2019-04-09T04:44:32.895Z,6.37
2019-04-09T04:45:30.886Z,5.62
2019-04-09T04:46:31.327Z,5.85
2019-04-09T04:47:48.517Z,5.72
2019-04-09T04:48:45.064Z,5.80
2019-04-09T04:49:46.498Z,6.15
2019-04-09T04:50:42.095Z,6.17
2019-04-09T04:51:31.208Z,5.47
2019-04-09T04:52:18.139Z,5.37
2019-04-09T04:53:12.585Z,5.72
2019-04-09T04:53:59.362Z,5.80
2019-04-09T04:54:56.607Z,5.10
2019-04-09T04:56:02.099Z,6.00
2019-04-09T04:56:52.246Z,4.93
2019-04-09T04:57:53.955Z,5.58
2019-04-09T04:58:52.151Z,5.60
2019-04-09T04:59:42.248Z,5.80
2019-04-09T05:00:38.088Z,5.37
2019-04-09T05:01:34.799Z,5.17
2019-04-09T05:02:31.380Z,4.90
2019-04-09T05:03:28.937Z,5.83
2019-04-09T05:04:16.186Z,5.28
2019-04-09T05:05:06.793Z,5.28
2019-04-09T05:05:59.721Z,5.35
2019-04-09T05:06:53.068Z,5.57
2019-04-09T05:07:57.268Z,5.08
2019-04-09T05:08:52.698Z,4.75
2019-04-09T05:09:57.249Z,5.17
2019-04-09T05:11:04.050Z,4.70
2019-04-09T05:12:20.032Z,5.60
2019-04-09T05:13:16.433Z,5.03
2019-04-09T05:14:11.575Z,5.53
2019-04-09T05:15:15.206Z,5.35
2019-04-09T05:16:12.579Z,5.20
2019-04-09T05:17:07.372Z,4.83
2019-04-09T05:17:56.930Z,5.10
2019-04-09T05:18:57.859Z,5.53
2019-04-09T05:19:58.374Z,5.47
2019-04-09T05:21:01.847Z,5.30
2019-04-09T05:21:58.799Z,4.87
2019-04-09T05:22:55.223Z,5.27
2019-04-09T05:23:46.956Z,4.87
2019-04-09T05:24:59.433Z,4.62
2019-04-09T05:25:56.579Z,4.27
2019-04-09T05:27:06.722Z,5.03
2019-04-09T05:28:02.868Z,4.55
2019-04-09T05:29:09.992Z,4.83
2019-04-09T05:30:10.729Z,4.45
2019-04-09T05:31:08.790Z,5.10
2019-04-09T05:32:05.519Z,5.20
2019-04-09T05:33:00.795Z,4.67
2019-04-09T05:34:03.862Z,4.80
2019-04-09T05:35:04.081Z,4.75
2019-04-09T05:35:53.609Z,4.60
2019-04-09T05:36:54.749Z,4.37
2019-04-09T05:37:51.262Z,4.62
2019-04-09T05:38:43.907Z,5.05
2019-04-09T05:39:39.978Z,4.67
2019-04-09T05:40:43.305Z,4.58
2019-04-09T05:41:29.819Z,4.45
2019-04-09T05:42:43.421Z,4.75
2019-04-09T05:43:39.374Z,4.80
2019-04-09T05:44:43.192Z,4.90
2019-04-09T05:45:52.060Z,4.37
2019-04-09T05:46:50.776Z,4.22
2019-04-09T05:47:36.813Z,4.58
2019-04-09T05:48:23.477Z,4.40
2019-04-09T05:49:22.077Z,4.53
2019-04-09T05:50:17.485Z,5.03
2019-04-09T05:51:15.478Z,4.47
2019-04-09T05:52:17.362Z,4.97
2019-04-09T05:53:14.737Z,4.40
2019-04-09T05:54:07.146Z,4.62
2019-04-09T05:55:02.478Z,4.50
2019-04-09T05:55:51.594Z,4.22
2019-04-09T05:56:48.789Z,4.50
2019-04-09T05:57:52.978Z,4.42
2019-04-09T05:58:59.110Z,4.55
2019-04-09T05:59:55.489Z,4.40
2019-04-09T06:00:54.669Z,5.30
2019-04-09T06:02:15.582Z,5.45
2019-04-09T06:03:06.144Z,4.12
2019-04-09T06:04:03.839Z,4.30
2019-04-09T06:05:02.726Z,4.07
2019-04-09T06:05:59.480Z,4.90
2019-04-09T06:07:13.108Z,4.83
2019-04-09T06:08:10.806Z,3.85
2019-04-09T06:09:11.431Z,3.95
2019-04-09T06:09:50.996Z,4.75
2019-04-09T06:10:30.455Z,4.28
2019-04-09T06:11:10.162Z,4.37
2019-04-09T06:11:49.992Z,4.70
2019-04-09T06:12:30.966Z,4.25
2019-04-09T06:13:11.255Z,4.33
2019-04-09T06:13:51.636Z,4.13
2019-04-09T06:14:30.913Z,3.98
2019-04-09T06:15:11.423Z,4.30
2019-04-09T06:15:55.208Z,4.10
2019-04-09T06:16:35.630Z,4.40
2019-04-09T06:17:15.043Z,4.30
2019-04-09T06:17:54.594Z,4.65
2019-04-09T06:18:34.290Z,4.47
2019-04-09T06:19:14.733Z,3.97
2019-04-09T06:19:54.657Z,4.63
2019-04-09T06:20:34.018Z,4.13
2019-04-09T06:21:18.498Z,4.40
2019-04-09T06:21:54.887Z,4.33
2019-04-09T06:22:35.026Z,4.45
2019-04-09T06:23:14.848Z,4.27
2019-04-09T06:23:54.835Z,4.28
2019-04-09T06:24:34.764Z,3.85
2019-04-09T06:25:15.273Z,3.72
2019-04-09T06:25:54.876Z,4.85
2019-04-09T06:26:34.885Z,4.75
2019-04-09T06:27:14.554Z,4.12
2019-04-09T06:27:57.438Z,4.30
2019-04-09T06:28:38.583Z,4.25
2019-04-09T06:29:21.623Z,4.40
2019-04-09T06:30:00.636Z,4.65
2019-04-09T06:30:41.803Z,3.97
2019-04-09T06:31:22.262Z,4.20
2019-04-09T06:32:06.721Z,4.10
2019-04-09T06:32:55.552Z,3.97
2019-04-09T06:33:51.789Z,4.17
2019-04-09T06:34:42.566Z,4.55
2019-04-09T06:35:31.902Z,4.05
2019-04-09T06:36:36.044Z,4.62
2019-04-09T06:37:26.265Z,4.40
2019-04-09T06:38:27.319Z,4.03
2019-04-09T06:39:32.523Z,4.10
2019-04-09T06:40:30.530Z,4.25
2019-04-09T06:41:31.363Z,4.42
2019-04-09T06:42:17.016Z,3.85
2019-04-09T06:43:23.564Z,4.50
2019-04-09T06:44:22.897Z,4.45
2019-04-09T06:45:19.276Z,4.45
2019-04-09T06:46:20.177Z,4.78
2019-04-09T06:47:22.988Z,4.10
2019-04-09T06:48:23.712Z,4.05
2019-04-09T06:49:22.062Z,4.40
2019-04-09T06:50:19.123Z,4.70
2019-04-09T06:51:05.869Z,4.72
2019-04-09T06:51:55.146Z,4.65
2019-04-09T06:53:04.624Z,4.55
2019-04-09T06:53:57.523Z,3.85
2019-04-09T06:54:57.748Z,4.20
2019-04-09T06:55:47.061Z,4.42
2019-04-09T06:56:39.997Z,4.12
2019-04-09T06:57:41.496Z,4.75
2019-04-09T06:58:38.674Z,3.72
2019-04-09T06:59:48.526Z,4.08
2019-04-09T07:00:35.963Z,4.25
2019-04-09T07:01:32.988Z,4.30
2019-04-09T07:02:37.795Z,3.95
2019-04-09T07:03:41.292Z,4.53
2019-04-09T07:04:56.710Z,4.35
2019-04-09T07:05:52.842Z,4.10
2019-04-09T07:06:48.894Z,4.10
2019-04-09T07:07:34.923Z,4.30
2019-04-09T07:08:22.491Z,4.45
2019-04-09T07:09:21.029Z,3.80
2019-04-09T07:10:24.494Z,4.83
2019-04-09T07:11:22.807Z,3.87
2019-04-09T07:12:14.222Z,4.10
2019-04-09T07:13:17.708Z,4.10
2019-04-09T07:14:15.990Z,4.45
2019-04-09T07:15:13.273Z,4.15
2019-04-09T07:16:11.585Z,3.60
2019-04-09T07:17:18.301Z,3.75
2019-04-09T07:18:25.239Z,4.30
2019-04-09T07:19:20.895Z,4.35
2019-04-09T07:20:15.738Z,3.95
2019-04-09T07:21:11.827Z,4.10
2019-04-09T07:22:08.778Z,4.10
2019-04-09T07:23:08.449Z,3.90
2019-04-09T07:23:56.401Z,4.10
2019-04-09T07:24:54.328Z,4.00
2019-04-09T07:25:50.757Z,3.87
2019-04-09T07:26:36.264Z,4.53
2019-04-09T07:27:43.251Z,3.70
2019-04-09T07:28:58.988Z,3.60
2019-04-09T07:30:06.948Z,3.67
2019-04-09T07:31:06.537Z,3.77
2019-04-09T07:32:19.896Z,3.80
2019-04-09T07:33:22.091Z,3.50
2019-04-09T07:34:26.672Z,3.85
2019-04-09T07:35:18.116Z,3.92
2019-04-09T07:36:10.940Z,3.72
2019-04-09T07:37:14.711Z,4.15
2019-04-09T07:38:17.940Z,3.57
2019-04-09T07:39:13.055Z,3.90
2019-04-09T07:40:12.883Z,3.70
2019-04-09T07:41:12.876Z,4.08
2019-04-09T07:42:10.861Z,3.17
2019-04-09T07:43:06.597Z,4.08
2019-04-09T07:43:58.840Z,3.60
2019-04-09T07:45:18.222Z,3.83
2019-04-09T07:46:14.670Z,3.83
2019-04-09T07:47:31.664Z,3.20
2019-04-09T07:48:30.230Z,3.77
2019-04-09T07:49:38.598Z,3.35
2019-04-09T07:50:32.246Z,3.55
2019-04-09T07:51:30.696Z,4.30
2019-04-09T07:52:34.552Z,3.92
2019-04-09T07:53:23.031Z,3.35
2019-04-09T07:54:21.581Z,3.77
2019-04-09T07:55:28.757Z,3.43
2019-04-09T07:56:14.338Z,3.67
2019-04-09T07:57:02.204Z,3.70
2019-04-09T07:58:10.026Z,3.30
2019-04-09T07:59:25.532Z,3.98
2019-04-09T08:00:26.299Z,3.67
2019-04-09T08:01:20.297Z,3.47
2019-04-09T08:02:17.219Z,3.60
2019-04-09T08:03:09.177Z,4.10
2019-04-09T08:04:01.852Z,3.37
2019-04-09T08:04:53.368Z,3.60
2019-04-09T08:06:05.944Z,3.47
2019-04-09T08:07:07.774Z,3.20
2019-04-09T08:08:09.287Z,3.40
2019-04-09T08:08:55.858Z,3.10
2019-04-09T08:09:53.426Z,3.10
2019-04-09T08:10:42.077Z,3.70
2019-04-09T08:11:44.484Z,3.55
2019-04-09T08:12:47.587Z,3.47
2019-04-09T08:13:43.986Z,3.70
2019-04-09T08:14:37.602Z,3.60
2019-04-09T08:15:44.090Z,3.63
2019-04-09T08:16:34.115Z,3.27
2019-04-09T08:17:41.705Z,3.50
2019-04-09T08:18:29.277Z,3.50
2019-04-09T08:19:26.011Z,3.37
2019-04-09T08:20:33.226Z,3.43
2019-04-09T08:21:18.762Z,3.60
2019-04-09T08:22:07.379Z,3.43
2019-04-09T08:23:02.831Z,2.97
2019-04-09T08:24:04.384Z,3.40
2019-04-09T08:25:08.358Z,3.50
2019-04-09T08:26:12.467Z,3.70
2019-04-09T08:27:11.233Z,3.10
2019-04-09T08:28:09.203Z,3.20
2019-04-09T08:29:15.587Z,3.20
2019-04-09T08:30:16.639Z,3.67
2019-04-09T08:31:04.886Z,3.43
2019-04-09T08:32:11.189Z,3.67
2019-04-09T08:32:47.628Z,3.23
2019-04-09T08:33:41.163Z,3.17
2019-04-09T08:34:34.596Z,3.20
2019-04-09T08:35:38.279Z,3.80
2019-04-09T08:36:37.415Z,3.60
2019-04-09T08:37:36.587Z,3.20
2019-04-09T08:38:41.368Z,3.40
2019-04-09T08:39:41.561Z,3.37
2019-04-09T08:40:40.210Z,3.37
2019-04-09T08:41:40.623Z,3.42
2019-04-09T08:42:53.352Z,3.90
2019-04-09T08:44:10.326Z,3.70
2019-04-09T08:45:15.413Z,3.50
2019-04-09T08:46:13.713Z,3.23
2019-04-09T08:47:18.983Z,4.10
2019-04-09T08:48:11.814Z,3.90
2019-04-09T08:49:17.783Z,3.40
2019-04-09T08:50:26.562Z,3.55
2019-04-09T08:51:35.961Z,3.30
2019-04-09T08:52:33.368Z,3.83
2019-04-09T08:53:39.772Z,3.47
2019-04-09T08:54:39.291Z,3.10
2019-04-09T08:55:31.138Z,3.20
2019-04-09T08:56:19.752Z,3.40
2019-04-09T08:57:16.639Z,3.67
2019-04-09T08:57:58.568Z,3.00
2019-04-09T08:58:57.311Z,3.37
2019-04-09T09:00:05.721Z,3.20
2019-04-09T09:01:33.870Z,3.17
2019-04-09T09:02:05.787Z,3.53
2019-04-09T09:02:51.735Z,3.20
2019-04-09T09:03:49.372Z,3.40
2019-04-09T09:04:51.845Z,3.27
2019-04-09T09:05:54.711Z,3.80
2019-04-09T09:06:48.707Z,3.47
2019-04-09T09:07:36.490Z,3.47
2019-04-09T09:08:40.536Z,3.50
2019-04-09T09:09:29.333Z,3.47
2019-04-09T09:10:35.804Z,4.33
2019-04-09T09:11:37.145Z,3.40
2019-04-09T09:12:40.578Z,3.30
2019-04-09T09:13:35.856Z,4.07
2019-04-09T09:14:34.230Z,3.27
2019-04-09T09:15:33.215Z,3.13
2019-04-09T09:16:34.285Z,3.63
2019-04-09T09:17:38.377Z,4.00
2019-04-09T09:18:26.577Z,3.50
2019-04-09T09:19:28.174Z,3.73
2019-04-09T09:20:35.439Z,3.70
2019-04-09T09:21:30.332Z,3.73
2019-04-09T09:22:31.613Z,3.10
2019-04-09T09:23:24.272Z,3.57
2019-04-09T09:24:21.874Z,3.33
2019-04-09T09:25:20.031Z,3.40
2019-04-09T09:26:11.437Z,4.13
2019-04-09T09:27:22.348Z,4.03
2019-04-09T09:28:18.556Z,3.07
2019-04-09T09:29:09.409Z,3.90
2019-04-09T09:30:13.530Z,2.80
2019-04-09T09:31:16.612Z,3.50
2019-04-09T09:32:06.124Z,3.63
2019-04-09T09:33:15.808Z,4.00
2019-04-09T09:34:24.334Z,3.47
2019-04-09T09:35:21.491Z,3.80
2019-04-09T09:36:17.983Z,3.90
2019-04-09T09:37:16.117Z,3.27
2019-04-09T09:38:13.100Z,3.90
2019-04-09T09:39:10.351Z,4.33
2019-04-09T09:40:29.747Z,3.90
2019-04-09T09:41:24.936Z,3.33
2019-04-09T09:42:10.926Z,3.50
2019-04-09T09:43:03.309Z,3.80
2019-04-09T09:43:50.348Z,4.23
2019-04-09T09:44:53.277Z,3.60
2019-04-09T09:46:00.267Z,3.60
2019-04-09T09:46:49.043Z,3.37
2019-04-09T09:47:54.781Z,3.50
2019-04-09T09:49:00.532Z,3.90
2019-04-09T09:50:06.357Z,4.00
2019-04-09T09:50:53.734Z,3.63
2019-04-09T09:52:11.013Z,4.03
2019-04-09T09:53:01.947Z,3.60
2019-04-09T09:54:02.088Z,3.33
2019-04-09T09:54:56.659Z,3.50
2019-04-09T09:55:56.229Z,3.90
2019-04-09T09:57:07.810Z,3.77
2019-04-09T09:58:02.944Z,3.70
2019-04-09T09:59:03.534Z,3.90
2019-04-09T10:00:11.486Z,3.67
2019-04-09T10:01:14.183Z,4.03
2019-04-09T10:02:05.151Z,4.00
2019-04-09T10:03:00.549Z,3.70
2019-04-09T10:03:58.485Z,4.07
2019-04-09T10:04:53.650Z,3.67
2019-04-09T10:06:13.741Z,3.40
2019-04-09T10:07:12.628Z,4.20
2019-04-09T10:08:07.295Z,4.00
2019-04-09T10:09:02.595Z,3.50
2019-04-09T10:09:49.167Z,3.80
2019-04-09T10:10:47.689Z,3.80
2019-04-09T10:11:53.752Z,3.50
2019-04-09T10:13:08.893Z,3.70
2019-04-09T10:14:01.453Z,3.87
2019-04-09T10:15:13.778Z,3.63
2019-04-09T10:16:06.947Z,3.70
2019-04-09T10:17:14.627Z,4.07
2019-04-09T10:18:18.884Z,3.40
2019-04-09T10:19:11.470Z,3.70
2019-04-09T10:20:03.388Z,3.77
2019-04-09T10:21:00.418Z,4.10
2019-04-09T10:21:49.657Z,4.00
2019-04-09T10:22:59.867Z,4.10
2019-04-09T10:24:07.306Z,3.93
2019-04-09T10:24:56.758Z,4.00
2019-04-09T10:25:54.355Z,4.00
2019-04-09T10:26:55.691Z,3.90
2019-04-09T10:28:04.242Z,3.70
2019-04-09T10:29:03.183Z,3.77
2019-04-09T10:30:07.668Z,3.70
2019-04-09T10:31:00.693Z,3.93
2019-04-09T10:32:07.502Z,3.40
2019-04-09T10:33:02.075Z,3.60
2019-04-09T10:33:57.607Z,3.73
2019-04-09T10:35:04.269Z,4.30
2019-04-09T10:36:05.676Z,3.80
2019-04-09T10:36:57.213Z,3.80
2019-04-09T10:37:53.835Z,3.80
2019-04-09T10:38:59.938Z,3.67
2019-04-09T10:39:47.388Z,3.80
2019-04-09T10:40:39.497Z,3.77
2019-04-09T10:41:45.947Z,3.60
2019-04-09T10:42:31.248Z,3.70
2019-04-09T10:43:25.397Z,4.30
2019-04-09T10:44:27.347Z,3.40
2019-04-09T10:45:28.527Z,3.67
2019-04-09T10:46:29.784Z,3.90
2019-04-09T10:47:24.483Z,3.77
2019-04-09T10:48:28.705Z,3.87
2019-04-09T10:49:28.172Z,3.97
2019-04-09T10:50:26.145Z,4.40
2019-04-09T10:51:36.111Z,4.93
2019-04-09T10:52:54.203Z,3.80
2019-04-09T10:53:48.933Z,3.87
2019-04-09T10:54:48.758Z,4.03
2019-04-09T10:55:38.024Z,4.40
2019-04-09T10:56:44.728Z,4.10
2019-04-09T10:57:34.083Z,3.83
2019-04-09T10:58:25.820Z,3.43
2019-04-09T10:59:31.991Z,4.17
2019-04-09T11:00:32.509Z,3.87
2019-04-09T11:01:35.146Z,4.13
2019-04-09T11:02:29.046Z,3.93
2019-04-09T11:03:20.831Z,3.60
2019-04-09T11:04:13.600Z,4.13
2019-04-09T11:05:17.520Z,3.47
2019-04-09T11:06:07.606Z,3.67
2019-04-09T11:07:03.033Z,4.00
2019-04-09T11:07:49.797Z,4.13
2019-04-09T11:08:41.494Z,3.77
2019-04-09T11:09:51.051Z,3.80
2019-04-09T11:10:45.168Z,4.27
2019-04-09T11:11:39.586Z,3.80
2019-04-09T11:12:40.743Z,4.23
2019-04-09T11:13:47.926Z,4.20
2019-04-09T11:14:46.060Z,4.30
2019-04-09T11:16:01.937Z,4.20
2019-04-09T11:16:52.706Z,3.77
2019-04-09T11:17:53.986Z,3.63
2019-04-09T11:18:46.023Z,4.27
2019-04-09T11:19:54.707Z,4.20
2019-04-09T11:20:49.707Z,3.90
2019-04-09T11:22:02.395Z,4.20
2019-04-09T11:22:58.150Z,4.43
2019-04-09T11:23:59.623Z,4.70
2019-04-09T11:25:06.244Z,4.00
2019-04-09T11:26:23.226Z,3.50
2019-04-09T11:27:33.307Z,3.77
2019-04-09T11:28:24.040Z,3.97
2019-04-09T11:29:20.666Z,3.73
2019-04-09T11:30:16.859Z,4.20
2019-04-09T11:31:13.767Z,3.90
2019-04-09T11:32:11.787Z,3.87
2019-04-09T11:33:08.782Z,3.83
2019-04-09T11:34:11.958Z,4.53
2019-04-09T11:35:12.249Z,4.30
2019-04-09T11:36:12.869Z,4.10
2019-04-09T11:37:11.591Z,4.07
2019-04-09T11:38:21.786Z,4.17
2019-04-09T11:39:08.439Z,4.00
2019-04-09T11:40:05.704Z,4.20
2019-04-09T11:41:08.150Z,4.30
2019-04-09T11:41:55.495Z,4.10
2019-04-09T11:42:56.433Z,4.10
2019-04-09T11:43:40.888Z,3.73
2019-04-09T11:44:38.106Z,4.13
2019-04-09T11:45:46.496Z,3.90
2019-04-09T11:46:47.155Z,3.83
2019-04-09T11:47:43.392Z,3.97
2019-04-09T11:48:30.137Z,3.80
2019-04-09T11:49:26.983Z,4.33
2019-04-09T11:50:18.845Z,4.00
2019-04-09T11:51:31.903Z,3.80
2019-04-09T11:52:48.237Z,3.97
2019-04-09T11:53:36.384Z,4.10
2019-04-09T11:54:26.845Z,4.20
2019-04-09T11:55:17.282Z,4.60
2019-04-09T11:56:17.970Z,3.90
2019-04-09T11:57:10.622Z,3.80
2019-04-09T11:58:08.917Z,4.30
2019-04-09T11:59:06.949Z,3.90
2019-04-09T12:00:04.358Z,3.33
2019-04-09T12:00:52.504Z,4.30
2019-04-09T12:02:05.068Z,4.00
2019-04-09T12:02:50.467Z,4.13
2019-04-09T12:03:51.509Z,4.07
2019-04-09T12:04:56.230Z,3.63
2019-04-09T12:06:09.883Z,3.73
2019-04-09T12:07:11.448Z,3.70
2019-04-09T12:08:00.242Z,3.97
2019-04-09T12:08:49.379Z,3.80
2019-04-09T12:09:43.823Z,4.13
2019-04-09T12:10:53.868Z,4.10
2019-04-09T12:11:45.907Z,4.10
2019-04-09T12:13:00.224Z,3.93